createdAt,value
2016-11-16T00:00:48.142Z,0
2016-11-16T00:01:57.193Z,0
2016-11-16T00:03:06.199Z,0
2016-11-16T00:04:15.238Z,0
2016-11-16T00:05:23.955Z,0
2016-11-16T00:06:32.652Z,0
2016-11-16T00:07:41.381Z,0
2016-11-16T00:08:50.689Z,0
2016-11-16T00:09:59.443Z,0
2016-11-16T00:11:08.769Z,0
2016-11-16T00:12:18.103Z,0
2016-11-16T00:13:27.171Z,0
2016-11-16T00:14:35.891Z,0
2016-11-16T00:15:44.908Z,0
2016-11-16T00:16:54.850Z,0
2016-11-16T00:18:03.649Z,0
2016-11-16T00:19:12.670Z,0
2016-11-16T00:20:21.386Z,0
2016-11-16T00:21:30.759Z,0
2016-11-16T00:22:40.137Z,0
2016-11-16T00:23:49.474Z,0
2016-11-16T00:24:58.515Z,0
2016-11-16T00:26:07.239Z,0
2016-11-16T00:27:16.627Z,0
2016-11-16T00:28:25.669Z,0
2016-11-16T00:29:34.994Z,0
2016-11-16T00:30:43.993Z,0
2016-11-16T00:31:53.012Z,0
2016-11-16T00:33:02.341Z,0
2016-11-16T00:34:11.375Z,0
2016-11-16T00:35:20.407Z,0
2016-11-16T00:36:30.066Z,0
2016-11-16T00:37:39.120Z,0
2016-11-16T00:38:48.168Z,0
2016-11-16T00:39:56.924Z,0
2016-11-16T00:41:05.652Z,0
2016-11-16T00:42:14.377Z,0
2016-11-16T00:43:23.096Z,0
2016-11-16T00:44:32.113Z,0
2016-11-16T00:45:40.853Z,0
2016-11-16T00:46:49.554Z,0
2016-11-16T00:47:58.255Z,0
2016-11-16T00:49:07.656Z,0
2016-11-16T00:50:17.026Z,0
2016-11-16T00:51:26.672Z,0
2016-11-16T00:52:35.382Z,0
2016-11-16T00:53:44.404Z,0
2016-11-16T00:54:53.493Z,0
2016-11-16T00:56:02.279Z,0
2016-11-16T00:57:11.613Z,0
2016-11-16T00:58:20.318Z,0
2016-11-16T00:59:29.333Z,0
2016-11-16T01:00:38.093Z,0
2016-11-16T01:01:47.405Z,0
2016-11-16T01:02:56.436Z,0
2016-11-16T01:04:05.797Z,0
2016-11-16T01:05:14.799Z,0
2016-11-16T01:06:24.117Z,0
2016-11-16T01:07:33.163Z,0
2016-11-16T01:08:41.894Z,0
2016-11-16T01:09:50.628Z,0
2016-11-16T01:11:00.274Z,0
2016-11-16T01:12:09.316Z,0
2016-11-16T01:13:18.066Z,0
2016-11-16T01:14:26.773Z,0
2016-11-16T01:15:35.484Z,0
2016-11-16T01:16:44.810Z,0
2016-11-16T01:17:54.147Z,0
2016-11-16T01:19:03.465Z,0
2016-11-16T01:20:12.230Z,0
2016-11-16T01:21:21.582Z,0
2016-11-16T01:22:30.616Z,0
2016-11-16T01:23:39.946Z,0
2016-11-16T01:24:48.677Z,0
2016-11-16T01:25:58.293Z,0
2016-11-16T01:27:07.612Z,0
2016-11-16T01:28:16.657Z,0
2016-11-16T01:29:25.680Z,0
2016-11-16T01:30:34.730Z,0
2016-11-16T01:31:43.739Z,0
2016-11-16T01:32:52.431Z,0
2016-11-16T01:34:01.127Z,0
2016-11-16T01:35:10.185Z,0
2016-11-16T01:36:19.197Z,0
2016-11-16T01:37:28.249Z,0
2016-11-16T01:38:36.967Z,0
2016-11-16T01:39:45.986Z,0
2016-11-16T01:40:54.732Z,0
2016-11-16T01:42:04.089Z,0
2016-11-16T01:43:13.089Z,0
2016-11-16T01:44:22.090Z,0
2016-11-16T01:45:31.119Z,0
2016-11-16T01:46:40.735Z,0
2016-11-16T01:47:50.059Z,0
2016-11-16T01:48:58.779Z,0
2016-11-16T01:50:08.730Z,0
2016-11-16T01:51:17.765Z,0
2016-11-16T01:52:26.467Z,0
2016-11-16T01:53:35.510Z,0
2016-11-16T01:54:44.821Z,0
2016-11-16T01:55:53.538Z,0
2016-11-16T01:57:02.580Z,0
2016-11-16T01:58:11.600Z,0
2016-11-16T01:59:21.253Z,0
2016-11-16T02:00:29.968Z,0
2016-11-16T02:01:38.979Z,0
2016-11-16T02:02:48.004Z,0
2016-11-16T02:03:57.036Z,0
2016-11-16T02:05:05.764Z,0
2016-11-16T02:06:14.784Z,0
2016-11-16T02:07:24.163Z,0
2016-11-16T02:08:32.859Z,0
2016-11-16T02:09:42.186Z,0
2016-11-16T02:10:51.258Z,0
2016-11-16T02:12:00.601Z,0
2016-11-16T02:13:09.990Z,0
2016-11-16T02:14:19.687Z,0
2016-11-16T02:15:29.010Z,0
2016-11-16T02:16:38.376Z,0
2016-11-16T02:17:47.409Z,0
2016-11-16T02:18:56.455Z,0
2016-11-16T02:20:05.783Z,0
2016-11-16T02:21:14.487Z,0
2016-11-16T02:22:23.510Z,0
2016-11-16T02:23:32.525Z,0
2016-11-16T02:24:41.865Z,0
2016-11-16T02:25:50.908Z,0
2016-11-16T02:27:00.211Z,0
2016-11-16T02:28:09.535Z,0
2016-11-16T02:29:18.264Z,0
2016-11-16T02:30:26.984Z,0
2016-11-16T02:31:36.004Z,0
2016-11-16T02:32:45.317Z,0
2016-11-16T02:33:54.693Z,0
2016-11-16T02:35:03.418Z,0
2016-11-16T02:36:12.106Z,0
2016-11-16T02:37:21.137Z,0
2016-11-16T02:38:30.151Z,0
2016-11-16T02:39:38.884Z,0
2016-11-16T02:40:47.600Z,0
2016-11-16T02:41:56.924Z,0
2016-11-16T02:43:05.654Z,0
2016-11-16T02:44:14.387Z,0
2016-11-16T02:45:23.399Z,0
2016-11-16T02:46:32.408Z,0
2016-11-16T02:47:41.116Z,0
2016-11-16T02:48:50.106Z,0
2016-11-16T02:49:59.140Z,0
2016-11-16T02:51:07.883Z,0
2016-11-16T02:52:17.253Z,0
2016-11-16T02:53:26.267Z,0
2016-11-16T02:54:35.602Z,0
2016-11-16T02:55:45.264Z,0
2016-11-16T02:56:54.306Z,0
2016-11-16T02:58:03.019Z,0
2016-11-16T02:59:12.065Z,0
2016-11-16T03:00:21.077Z,0
2016-11-16T03:01:30.418Z,0
2016-11-16T03:02:39.734Z,0
2016-11-16T03:03:48.421Z,0
2016-11-16T03:04:57.109Z,0
2016-11-16T03:06:06.106Z,0
2016-11-16T03:07:15.448Z,0
2016-11-16T03:08:24.812Z,0
2016-11-16T03:09:33.871Z,0
2016-11-16T03:10:42.906Z,0
2016-11-16T03:11:52.268Z,0
2016-11-16T03:13:01.315Z,0
2016-11-16T03:14:10.305Z,0
2016-11-16T03:15:19.016Z,0
2016-11-16T03:16:28.340Z,0
2016-11-16T03:17:37.054Z,0
2016-11-16T03:18:46.413Z,0
2016-11-16T03:19:56.132Z,0
2016-11-16T03:21:05.165Z,0
2016-11-16T03:22:13.908Z,0
2016-11-16T03:23:22.942Z,0
2016-11-16T03:24:31.979Z,0
2016-11-16T03:25:40.706Z,0
2016-11-16T03:26:50.356Z,0
2016-11-16T03:27:59.705Z,0
2016-11-16T03:29:08.431Z,0
2016-11-16T03:30:17.818Z,0
2016-11-16T03:31:27.556Z,0
2016-11-16T03:32:36.287Z,0
2016-11-16T03:33:45.329Z,0
2016-11-16T03:34:54.398Z,0
2016-11-16T03:36:03.410Z,0
2016-11-16T03:37:12.118Z,0
2016-11-16T03:38:20.859Z,0
2016-11-16T03:39:30.305Z,0
2016-11-16T03:40:39.357Z,0
2016-11-16T03:41:48.386Z,0
2016-11-16T03:42:57.152Z,0
2016-11-16T03:44:06.218Z,0
2016-11-16T03:45:15.602Z,0
2016-11-16T03:46:24.635Z,0
2016-11-16T03:47:34.021Z,0
2016-11-16T03:48:43.365Z,0
2016-11-16T03:49:52.701Z,0
2016-11-16T03:51:02.033Z,0
2016-11-16T03:52:11.356Z,0
2016-11-16T03:53:20.691Z,0
2016-11-16T03:54:29.768Z,0
2016-11-16T03:55:39.411Z,0
2016-11-16T03:56:48.139Z,0
2016-11-16T03:57:57.499Z,0
2016-11-16T03:59:06.552Z,0
2016-11-16T04:00:15.263Z,0
2016-11-16T04:01:24.319Z,0
2016-11-16T04:02:33.641Z,0
2016-11-16T04:03:42.398Z,0
2016-11-16T04:04:51.752Z,0
2016-11-16T04:06:00.548Z,0
2016-11-16T04:07:09.874Z,0
2016-11-16T04:08:18.897Z,0
2016-11-16T04:09:28.213Z,0
2016-11-16T04:10:37.235Z,0
2016-11-16T04:11:46.047Z,0
2016-11-16T04:12:54.808Z,0
2016-11-16T04:14:03.533Z,0
2016-11-16T04:15:12.266Z,0
2016-11-16T04:16:20.994Z,0
2016-11-16T04:17:30.651Z,0
2016-11-16T04:18:39.698Z,0
2016-11-16T04:19:48.752Z,0
2016-11-16T04:20:57.462Z,0
2016-11-16T04:22:06.510Z,0
2016-11-16T04:23:15.278Z,0
2016-11-16T04:24:24.681Z,0
2016-11-16T04:25:34.020Z,0
2016-11-16T04:26:43.368Z,0
2016-11-16T04:27:52.409Z,0
2016-11-16T04:29:01.182Z,0
2016-11-16T04:30:09.960Z,0
2016-11-16T04:31:19.026Z,0
2016-11-16T04:32:28.060Z,0
2016-11-16T04:33:37.141Z,0
2016-11-16T04:34:46.767Z,0
2016-11-16T04:35:56.384Z,0
2016-11-16T04:37:06.092Z,0
2016-11-16T04:38:15.141Z,0
2016-11-16T04:39:23.869Z,0
2016-11-16T04:40:32.631Z,0
2016-11-16T04:41:41.651Z,0
2016-11-16T04:42:50.715Z,0
2016-11-16T04:43:59.482Z,0
2016-11-16T04:45:08.590Z,0
2016-11-16T04:46:17.985Z,0
2016-11-16T04:47:27.007Z,0
2016-11-16T04:48:35.995Z,0
2016-11-16T04:49:45.009Z,0
2016-11-16T04:50:53.695Z,0
2016-11-16T04:52:02.733Z,0
2016-11-16T04:53:11.759Z,0
2016-11-16T04:54:20.472Z,0
2016-11-16T04:55:29.494Z,0
2016-11-16T04:56:38.841Z,0
2016-11-16T04:57:48.247Z,0
2016-11-16T04:58:57.867Z,0
2016-11-16T05:00:07.228Z,0
2016-11-16T05:01:15.932Z,0
2016-11-16T05:02:25.291Z,0
2016-11-16T05:03:34.632Z,0
2016-11-16T05:04:43.669Z,0
2016-11-16T05:05:52.374Z,0
2016-11-16T05:07:01.113Z,0
2016-11-16T05:08:10.766Z,0
2016-11-16T05:09:19.900Z,0
2016-11-16T05:10:29.251Z,0
2016-11-16T05:11:38.362Z,0
2016-11-16T05:12:47.117Z,0
2016-11-16T05:13:56.505Z,0
2016-11-16T05:15:05.904Z,0
2016-11-16T05:16:15.282Z,0
2016-11-16T05:17:24.350Z,0
2016-11-16T05:18:33.068Z,0
2016-11-16T05:19:41.803Z,0
2016-11-16T05:20:50.858Z,0
2016-11-16T05:21:59.557Z,0
2016-11-16T05:23:08.588Z,0
2016-11-16T05:24:17.609Z,0
2016-11-16T05:25:26.383Z,0
2016-11-16T05:26:35.429Z,0
2016-11-16T05:27:44.462Z,0
2016-11-16T05:28:53.158Z,0
2016-11-16T05:30:02.493Z,0
2016-11-16T05:31:11.549Z,0
2016-11-16T05:32:20.292Z,0
2016-11-16T05:33:29.021Z,0
2016-11-16T05:34:38.392Z,0
2016-11-16T05:35:47.384Z,0
2016-11-16T05:36:56.404Z,0
2016-11-16T05:38:05.732Z,0
2016-11-16T05:39:15.124Z,0
2016-11-16T05:40:23.924Z,0
2016-11-16T05:41:32.982Z,0
2016-11-16T05:42:41.719Z,0
2016-11-16T05:43:50.735Z,0
2016-11-16T05:45:00.410Z,0
2016-11-16T05:46:09.439Z,0
2016-11-16T05:47:18.464Z,0
2016-11-16T05:48:27.497Z,0
2016-11-16T05:49:37.154Z,0
2016-11-16T05:50:46.475Z,0
2016-11-16T05:51:55.806Z,0
2016-11-16T05:53:04.533Z,0
2016-11-16T05:54:13.570Z,0
2016-11-16T05:55:22.915Z,0
2016-11-16T05:56:32.239Z,0
2016-11-16T05:57:41.275Z,0
2016-11-16T05:58:49.995Z,0
2016-11-16T05:59:58.708Z,0
2016-11-16T06:01:07.419Z,0
2016-11-16T06:02:16.504Z,0
2016-11-16T06:03:25.898Z,0
2016-11-16T06:04:34.576Z,0
2016-11-16T06:05:43.568Z,0
2016-11-16T06:06:52.286Z,0
2016-11-16T06:08:01.378Z,0
2016-11-16T06:09:10.407Z,0
2016-11-16T06:10:19.774Z,0
2016-11-16T06:11:28.777Z,0
2016-11-16T06:12:37.814Z,0
2016-11-16T06:13:46.823Z,0
2016-11-16T06:14:55.832Z,0
2016-11-16T06:16:04.850Z,0
2016-11-16T06:17:13.566Z,0
2016-11-16T06:18:22.895Z,0
2016-11-16T06:19:31.886Z,0
2016-11-16T06:20:41.495Z,0
2016-11-16T06:21:50.225Z,0
2016-11-16T06:22:58.986Z,0
2016-11-16T06:24:08.294Z,0
2016-11-16T06:25:17.299Z,0
2016-11-16T06:26:26.309Z,0
2016-11-16T06:27:35.340Z,0
2016-11-16T06:28:44.055Z,0
2016-11-16T06:29:52.780Z,0
2016-11-16T06:31:01.492Z,0
2016-11-16T06:32:10.798Z,0
2016-11-16T06:33:19.501Z,0
2016-11-16T06:34:28.546Z,0
2016-11-16T06:35:37.246Z,0
2016-11-16T06:36:45.989Z,0
2016-11-16T06:37:55.300Z,0
2016-11-16T06:39:04.347Z,0
2016-11-16T06:40:13.969Z,0
2016-11-16T06:41:22.679Z,0
2016-11-16T06:42:31.679Z,0
2016-11-16T06:43:41.007Z,0
2016-11-16T06:44:50.015Z,0
2016-11-16T06:45:59.046Z,0
2016-11-16T06:47:08.658Z,0
2016-11-16T06:48:17.666Z,0
2016-11-16T06:49:27.604Z,0
2016-11-16T06:50:36.919Z,4
2016-11-16T06:51:45.919Z,4
2016-11-16T06:52:54.964Z,4
2016-11-16T06:54:03.993Z,4
2016-11-16T06:55:13.312Z,4
2016-11-16T06:56:22.060Z,4
2016-11-16T06:57:30.762Z,4
2016-11-16T06:58:39.806Z,4
2016-11-16T06:59:48.871Z,4
2016-11-16T07:00:57.894Z,8
2016-11-16T07:02:06.928Z,8
2016-11-16T07:03:16.318Z,8
2016-11-16T07:04:25.381Z,12
2016-11-16T07:05:34.397Z,20
2016-11-16T07:06:43.405Z,16
2016-11-16T07:07:52.750Z,24
2016-11-16T07:09:01.479Z,24
2016-11-16T07:10:10.835Z,20
2016-11-16T07:11:19.539Z,20
2016-11-16T07:12:28.921Z,20
2016-11-16T07:13:37.625Z,20
2016-11-16T07:14:46.979Z,24
2016-11-16T07:15:55.692Z,24
2016-11-16T07:17:04.402Z,28
2016-11-16T07:18:13.408Z,28
2016-11-16T07:19:22.718Z,28
2016-11-16T07:20:32.019Z,28
2016-11-16T07:21:41.055Z,32
2016-11-16T07:22:49.764Z,32
2016-11-16T07:23:58.486Z,32
2016-11-16T07:25:07.508Z,48
2016-11-16T07:26:16.522Z,44
2016-11-16T07:27:25.823Z,52
2016-11-16T07:28:34.842Z,48
2016-11-16T07:29:44.174Z,44
2016-11-16T07:30:53.199Z,52
2016-11-16T07:32:02.219Z,52
2016-11-16T07:33:10.936Z,52
2016-11-16T07:34:19.960Z,48
2016-11-16T07:35:29.069Z,48
2016-11-16T07:36:38.388Z,40
2016-11-16T07:37:48.373Z,36
2016-11-16T07:38:57.096Z,36
2016-11-16T07:40:05.852Z,36
2016-11-16T07:41:15.173Z,44
2016-11-16T07:42:24.167Z,52
2016-11-16T07:43:33.171Z,60
2016-11-16T07:44:42.223Z,64
2016-11-16T07:45:51.227Z,76
2016-11-16T07:47:00.554Z,60
2016-11-16T07:48:09.920Z,60
2016-11-16T07:49:18.640Z,76
2016-11-16T07:50:27.727Z,72
2016-11-16T07:51:36.471Z,72
2016-11-16T07:52:45.220Z,64
2016-11-16T07:53:53.935Z,68
2016-11-16T07:55:02.652Z,64
2016-11-16T07:56:11.656Z,64
2016-11-16T07:57:20.648Z,72
2016-11-16T07:58:29.359Z,72
2016-11-16T07:59:38.352Z,68
2016-11-16T08:00:47.694Z,72
2016-11-16T08:01:56.429Z,64
2016-11-16T08:03:05.441Z,52
2016-11-16T08:04:15.055Z,52
2016-11-16T08:05:24.066Z,64
2016-11-16T08:06:33.056Z,56
2016-11-16T08:07:42.693Z,52
2016-11-16T08:08:51.711Z,64
2016-11-16T08:10:01.017Z,48
2016-11-16T08:11:10.332Z,56
2016-11-16T08:12:19.333Z,56
2016-11-16T08:13:28.938Z,64
2016-11-16T08:14:38.292Z,60
2016-11-16T08:15:47.321Z,76
2016-11-16T08:16:56.943Z,80
2016-11-16T08:18:05.641Z,68
2016-11-16T08:19:14.979Z,84
2016-11-16T08:20:24.290Z,68
2016-11-16T08:21:33.626Z,64
2016-11-16T08:22:42.959Z,64
2016-11-16T08:23:52.370Z,84
2016-11-16T08:25:01.449Z,64
2016-11-16T08:26:10.840Z,72
2016-11-16T08:27:20.545Z,72
2016-11-16T08:28:29.929Z,84
2016-11-16T08:29:38.978Z,80
2016-11-16T08:30:48.023Z,64
2016-11-16T08:31:57.359Z,88
2016-11-16T08:33:06.699Z,88
2016-11-16T08:34:16.391Z,84
2016-11-16T08:35:25.127Z,88
2016-11-16T08:36:33.858Z,84
2016-11-16T08:37:43.555Z,76
2016-11-16T08:38:52.590Z,76
2016-11-16T08:40:01.946Z,68
2016-11-16T08:41:10.702Z,100
2016-11-16T08:42:20.071Z,104
2016-11-16T08:43:29.162Z,88
2016-11-16T08:44:38.565Z,100
2016-11-16T08:45:47.613Z,104
2016-11-16T08:46:56.967Z,92
2016-11-16T08:48:06.652Z,116
2016-11-16T08:49:15.410Z,92
2016-11-16T08:50:24.792Z,84
2016-11-16T08:51:33.553Z,68
2016-11-16T08:52:42.612Z,60
2016-11-16T08:53:51.357Z,64
2016-11-16T08:55:00.396Z,64
2016-11-16T08:56:09.129Z,64
2016-11-16T08:57:18.231Z,72
2016-11-16T08:58:27.304Z,76
2016-11-16T08:59:36.702Z,92
2016-11-16T09:00:45.407Z,100
2016-11-16T09:01:54.809Z,92
2016-11-16T09:03:03.583Z,96
2016-11-16T09:04:12.947Z,108
2016-11-16T09:05:21.702Z,112
2016-11-16T09:06:30.780Z,112
2016-11-16T09:07:39.506Z,120
2016-11-16T09:08:48.596Z,120
2016-11-16T09:09:57.663Z,108
2016-11-16T09:11:06.708Z,124
2016-11-16T09:12:15.778Z,108
2016-11-16T09:13:24.951Z,104
2016-11-16T09:14:34.578Z,108
2016-11-16T09:15:44.551Z,124
2016-11-16T09:16:53.943Z,128
2016-11-16T09:18:03.291Z,124
2016-11-16T09:19:12.130Z,124
2016-11-16T09:20:21.533Z,128
2016-11-16T09:21:30.363Z,92
2016-11-16T09:22:39.444Z,76
2016-11-16T09:23:48.757Z,100
2016-11-16T09:24:57.887Z,112
2016-11-16T09:26:06.647Z,144
2016-11-16T09:27:15.352Z,132
2016-11-16T09:28:24.382Z,120
2016-11-16T09:29:33.159Z,116
2016-11-16T09:30:42.508Z,136
2016-11-16T09:31:51.573Z,136
2016-11-16T09:33:01.321Z,144
2016-11-16T09:34:10.061Z,140
2016-11-16T09:35:19.472Z,200
2016-11-16T09:36:28.595Z,196
2016-11-16T09:37:37.672Z,188
2016-11-16T09:38:46.722Z,188
2016-11-16T09:39:56.396Z,140
2016-11-16T09:41:05.175Z,144
2016-11-16T09:42:14.269Z,148
2016-11-16T09:43:23.278Z,116
2016-11-16T09:44:32.278Z,128
2016-11-16T09:45:41.037Z,140
2016-11-16T09:46:50.114Z,164
2016-11-16T09:47:59.136Z,136
2016-11-16T09:49:07.871Z,176
2016-11-16T09:50:16.711Z,140
2016-11-16T09:51:25.420Z,152
2016-11-16T09:52:34.787Z,164
2016-11-16T09:53:43.814Z,172
2016-11-16T09:54:52.540Z,176
2016-11-16T09:56:01.548Z,172
2016-11-16T09:57:10.628Z,132
2016-11-16T09:58:19.376Z,140
2016-11-16T09:59:28.121Z,172
2016-11-16T10:00:37.452Z,196
2016-11-16T10:01:46.289Z,212
2016-11-16T10:02:55.492Z,188
2016-11-16T10:04:04.853Z,236
2016-11-16T10:05:14.207Z,232
2016-11-16T10:06:23.589Z,220
2016-11-16T10:07:32.674Z,216
2016-11-16T10:08:41.456Z,216
2016-11-16T10:09:50.538Z,192
2016-11-16T10:11:00.242Z,180
2016-11-16T10:12:09.606Z,180
2016-11-16T10:13:18.668Z,168
2016-11-16T10:14:27.421Z,156
2016-11-16T10:15:36.439Z,132
2016-11-16T10:16:45.466Z,160
2016-11-16T10:17:54.818Z,136
2016-11-16T10:19:03.505Z,176
2016-11-16T10:20:12.518Z,200
2016-11-16T10:21:21.900Z,236
2016-11-16T10:22:31.566Z,236
2016-11-16T10:23:40.617Z,280
2016-11-16T10:24:49.316Z,328
2016-11-16T10:25:58.633Z,240
2016-11-16T10:27:07.699Z,320
2016-11-16T10:28:16.742Z,312
2016-11-16T10:29:26.417Z,260
2016-11-16T10:30:35.435Z,252
2016-11-16T10:31:44.453Z,264
2016-11-16T10:32:53.799Z,248
2016-11-16T10:34:02.913Z,244
2016-11-16T10:35:12.005Z,268
2016-11-16T10:36:21.407Z,272
2016-11-16T10:37:30.466Z,276
2016-11-16T10:38:39.830Z,240
2016-11-16T10:39:49.134Z,232
2016-11-16T10:40:58.157Z,228
2016-11-16T10:42:07.176Z,244
2016-11-16T10:43:16.204Z,240
2016-11-16T10:44:25.540Z,188
2016-11-16T10:45:34.568Z,192
2016-11-16T10:46:43.921Z,216
2016-11-16T10:47:52.977Z,216
2016-11-16T10:49:02.016Z,228
2016-11-16T10:50:11.050Z,212
2016-11-16T10:51:20.083Z,204
2016-11-16T10:52:28.806Z,200
2016-11-16T10:53:37.906Z,200
2016-11-16T10:54:47.000Z,192
2016-11-16T10:55:56.007Z,208
2016-11-16T10:57:05.029Z,252
2016-11-16T10:58:14.082Z,260
2016-11-16T10:59:22.859Z,248
2016-11-16T11:00:32.565Z,228
2016-11-16T11:01:41.282Z,224
2016-11-16T11:02:50.625Z,168
2016-11-16T11:03:59.646Z,192
2016-11-16T11:05:08.738Z,212
2016-11-16T11:06:18.087Z,196
2016-11-16T11:07:27.176Z,208
2016-11-16T11:08:36.499Z,208
2016-11-16T11:09:45.525Z,228
2016-11-16T11:10:54.591Z,272
2016-11-16T11:12:04.251Z,272
2016-11-16T11:13:13.910Z,364
2016-11-16T11:14:22.933Z,408
2016-11-16T11:15:32.300Z,432
2016-11-16T11:16:41.327Z,420
2016-11-16T11:17:50.653Z,436
2016-11-16T11:18:59.360Z,460
2016-11-16T11:20:08.106Z,404
2016-11-16T11:21:16.831Z,408
2016-11-16T11:22:26.220Z,376
2016-11-16T11:23:34.981Z,292
2016-11-16T11:24:44.342Z,280
2016-11-16T11:25:53.119Z,300
2016-11-16T11:27:02.148Z,304
2016-11-16T11:28:11.521Z,292
2016-11-16T11:29:20.851Z,240
2016-11-16T11:30:30.175Z,224
2016-11-16T11:31:39.201Z,240
2016-11-16T11:32:48.553Z,180
2016-11-16T11:33:57.895Z,200
2016-11-16T11:35:06.941Z,184
2016-11-16T11:36:16.010Z,216
2016-11-16T11:37:25.057Z,244
2016-11-16T11:38:34.220Z,264
2016-11-16T11:39:42.963Z,312
2016-11-16T11:40:52.630Z,396
2016-11-16T11:42:01.343Z,504
2016-11-16T11:43:10.083Z,492
2016-11-16T11:44:19.161Z,432
2016-11-16T11:45:28.518Z,432
2016-11-16T11:46:37.885Z,448
2016-11-16T11:47:46.632Z,468
2016-11-16T11:48:55.682Z,448
2016-11-16T11:50:04.469Z,404
2016-11-16T11:51:13.506Z,424
2016-11-16T11:52:22.240Z,452
2016-11-16T11:53:31.279Z,400
2016-11-16T11:54:41.240Z,388
2016-11-16T11:55:50.625Z,360
2016-11-16T11:56:59.684Z,352
2016-11-16T11:58:08.454Z,324
2016-11-16T11:59:18.085Z,284
2016-11-16T12:00:26.913Z,256
2016-11-16T12:01:35.677Z,264
2016-11-16T12:02:44.713Z,256
2016-11-16T12:03:54.090Z,264
2016-11-16T12:05:03.099Z,264
2016-11-16T12:06:11.843Z,328
2016-11-16T12:07:21.187Z,356
2016-11-16T12:08:29.919Z,476
2016-11-16T12:09:38.972Z,556
2016-11-16T12:10:48.348Z,448
2016-11-16T12:11:57.719Z,336
2016-11-16T12:13:06.544Z,408
2016-11-16T12:14:15.332Z,396
2016-11-16T12:15:24.386Z,376
2016-11-16T12:16:33.738Z,384
2016-11-16T12:17:42.523Z,388
2016-11-16T12:18:51.305Z,424
2016-11-16T12:20:00.659Z,460
2016-11-16T12:21:09.752Z,464
2016-11-16T12:22:19.138Z,456
2016-11-16T12:23:28.481Z,388
2016-11-16T12:24:37.529Z,408
2016-11-16T12:25:46.530Z,324
2016-11-16T12:26:56.233Z,348
2016-11-16T12:28:05.081Z,320
2016-11-16T12:29:14.395Z,340
2016-11-16T12:30:23.122Z,436
2016-11-16T12:31:32.483Z,364
2016-11-16T12:32:41.273Z,380
2016-11-16T12:33:50.006Z,296
2016-11-16T12:34:58.914Z,312
2016-11-16T12:36:08.267Z,340
2016-11-16T12:37:17.041Z,324
2016-11-16T12:38:25.774Z,320
2016-11-16T12:39:34.590Z,228
2016-11-16T12:40:43.979Z,224
2016-11-16T12:41:52.722Z,196
2016-11-16T12:43:01.471Z,200
2016-11-16T12:44:10.849Z,196
2016-11-16T12:45:19.565Z,232
2016-11-16T12:46:29.552Z,232
2016-11-16T12:47:38.604Z,232
2016-11-16T12:48:47.363Z,240
2016-11-16T12:49:56.710Z,272
2016-11-16T12:51:05.794Z,276
2016-11-16T12:52:15.497Z,264
2016-11-16T12:53:24.284Z,276
2016-11-16T12:54:33.316Z,220
2016-11-16T12:55:42.083Z,264
2016-11-16T12:56:51.405Z,276
2016-11-16T12:58:00.190Z,268
2016-11-16T12:59:09.191Z,316
2016-11-16T13:00:18.252Z,272
2016-11-16T13:01:27.308Z,304
2016-11-16T13:02:36.330Z,304
2016-11-16T13:03:45.388Z,420
2016-11-16T13:04:54.406Z,392
2016-11-16T13:06:03.782Z,488
2016-11-16T13:07:12.845Z,484
2016-11-16T13:08:22.194Z,424
2016-11-16T13:09:31.204Z,404
2016-11-16T13:10:39.918Z,428
2016-11-16T13:11:48.653Z,408
2016-11-16T13:12:57.694Z,292
2016-11-16T13:14:06.435Z,352
2016-11-16T13:15:15.510Z,340
2016-11-16T13:16:24.586Z,324
2016-11-16T13:17:33.674Z,300
2016-11-16T13:18:42.692Z,328
2016-11-16T13:19:52.310Z,344
2016-11-16T13:21:01.104Z,348
2016-11-16T13:22:10.174Z,356
2016-11-16T13:23:19.521Z,420
2016-11-16T13:24:28.605Z,432
2016-11-16T13:25:37.425Z,376
2016-11-16T13:26:46.761Z,320
2016-11-16T13:27:55.575Z,360
2016-11-16T13:29:05.263Z,324
2016-11-16T13:30:14.369Z,320
2016-11-16T13:31:23.386Z,324
2016-11-16T13:32:33.044Z,324
2016-11-16T13:33:42.375Z,288
2016-11-16T13:34:51.131Z,308
2016-11-16T13:35:59.852Z,296
2016-11-16T13:37:09.607Z,304
2016-11-16T13:38:18.612Z,320
2016-11-16T13:39:28.040Z,232
2016-11-16T13:40:37.081Z,240
2016-11-16T13:41:46.148Z,312
2016-11-16T13:42:55.527Z,348
2016-11-16T13:44:04.873Z,208
2016-11-16T13:45:13.580Z,220
2016-11-16T13:46:22.951Z,276
2016-11-16T13:47:31.674Z,204
2016-11-16T13:48:40.732Z,212
2016-11-16T13:49:49.452Z,272
2016-11-16T13:50:58.474Z,236
2016-11-16T13:52:07.269Z,244
2016-11-16T13:53:16.314Z,232
2016-11-16T13:54:25.661Z,288
2016-11-16T13:55:34.385Z,244
2016-11-16T13:56:43.205Z,284
2016-11-16T13:57:52.597Z,280
2016-11-16T13:59:01.313Z,312
2016-11-16T14:00:10.385Z,228
2016-11-16T14:01:20.185Z,192
2016-11-16T14:02:29.265Z,240
2016-11-16T14:03:37.974Z,232
2016-11-16T14:04:47.036Z,232
2016-11-16T14:05:56.744Z,188
2016-11-16T14:07:05.759Z,296
2016-11-16T14:08:15.143Z,232
2016-11-16T14:09:24.518Z,244
2016-11-16T14:10:33.292Z,212
2016-11-16T14:11:42.626Z,264
2016-11-16T14:12:51.380Z,268
2016-11-16T14:14:00.465Z,252
2016-11-16T14:15:09.249Z,304
2016-11-16T14:16:17.994Z,364
2016-11-16T14:17:27.047Z,384
2016-11-16T14:18:36.400Z,372
2016-11-16T14:19:45.151Z,352
2016-11-16T14:20:54.241Z,304
2016-11-16T14:22:03.283Z,244
2016-11-16T14:23:12.031Z,236
2016-11-16T14:24:46.732Z,256
2016-11-16T14:25:55.511Z,316
2016-11-16T14:27:04.223Z,284
2016-11-16T14:28:12.955Z,252
2016-11-16T14:29:21.659Z,192
2016-11-16T14:30:30.730Z,156
2016-11-16T14:31:39.441Z,164
2016-11-16T14:32:48.166Z,212
2016-11-16T14:33:56.921Z,204
2016-11-16T14:35:05.646Z,172
2016-11-16T14:36:14.657Z,152
2016-11-16T14:37:23.713Z,124
2016-11-16T14:38:33.362Z,112
2016-11-16T14:39:42.681Z,92
2016-11-16T14:40:51.717Z,72
2016-11-16T14:42:01.378Z,96
2016-11-16T14:43:10.122Z,92
2016-11-16T14:44:19.455Z,144
2016-11-16T14:45:28.455Z,172
2016-11-16T14:46:37.975Z,140
2016-11-16T14:47:47.006Z,104
2016-11-16T14:48:56.661Z,124
2016-11-16T14:50:05.713Z,152
2016-11-16T14:51:14.760Z,164
2016-11-16T14:52:24.079Z,144
2016-11-16T14:53:33.390Z,128
2016-11-16T14:54:42.711Z,100
2016-11-16T14:55:52.118Z,60
2016-11-16T14:57:00.821Z,48
2016-11-16T14:58:09.909Z,60
2016-11-16T14:59:18.973Z,36
2016-11-16T15:00:28.631Z,36
2016-11-16T15:01:37.999Z,32
2016-11-16T15:02:47.422Z,36
2016-11-16T15:03:56.815Z,40
2016-11-16T15:05:06.158Z,36
2016-11-16T15:06:15.505Z,32
2016-11-16T15:07:24.532Z,44
2016-11-16T15:08:33.583Z,80
2016-11-16T15:09:42.929Z,80
2016-11-16T15:10:51.675Z,68
2016-11-16T15:12:00.749Z,76
2016-11-16T15:13:09.807Z,52
2016-11-16T15:14:19.182Z,60
2016-11-16T15:15:28.272Z,60
2016-11-16T15:16:37.010Z,64
2016-11-16T15:17:45.772Z,68
2016-11-16T15:18:55.143Z,64
2016-11-16T15:20:04.189Z,56
2016-11-16T15:21:13.610Z,60
2016-11-16T15:22:22.353Z,52
2016-11-16T15:23:31.388Z,48
2016-11-16T15:24:40.422Z,48
2016-11-16T15:25:49.474Z,44
2016-11-16T15:26:58.494Z,44
2016-11-16T15:28:07.805Z,36
2016-11-16T15:29:17.159Z,32
2016-11-16T15:30:26.537Z,36
2016-11-16T15:31:35.931Z,36
2016-11-16T15:32:44.651Z,24
2016-11-16T15:33:53.380Z,28
2016-11-16T15:35:02.426Z,24
2016-11-16T15:36:11.749Z,20
2016-11-16T15:37:20.772Z,16
2016-11-16T15:38:29.478Z,20
2016-11-16T15:39:38.248Z,20
2016-11-16T15:40:46.963Z,16
2016-11-16T15:41:56.072Z,16
2016-11-16T15:43:05.132Z,16
2016-11-16T15:44:14.169Z,16
2016-11-16T15:45:23.531Z,12
2016-11-16T15:46:32.287Z,12
2016-11-16T15:47:41.706Z,12
2016-11-16T15:48:51.063Z,12
2016-11-16T15:49:59.808Z,8
2016-11-16T15:51:08.555Z,8
2016-11-16T15:52:17.912Z,8
2016-11-16T15:53:26.658Z,8
2016-11-16T15:54:36.065Z,4
2016-11-16T15:55:45.480Z,4
2016-11-16T15:56:54.836Z,4
2016-11-16T15:58:03.613Z,4
2016-11-16T15:59:12.342Z,4
2016-11-16T16:00:21.419Z,4
2016-11-16T16:01:30.500Z,0
2016-11-16T16:02:39.535Z,0
2016-11-16T16:03:48.590Z,0
2016-11-16T16:04:57.657Z,0
2016-11-16T16:06:06.427Z,0
2016-11-16T16:07:15.490Z,0
2016-11-16T16:08:24.915Z,0
2016-11-16T16:09:33.943Z,0
2016-11-16T16:10:43.297Z,0
2016-11-16T16:11:52.092Z,0
2016-11-16T16:13:01.101Z,0
2016-11-16T16:14:10.139Z,0
2016-11-16T16:15:18.868Z,0
2016-11-16T16:16:27.587Z,0
2016-11-16T16:17:36.626Z,0
2016-11-16T16:18:45.393Z,0
2016-11-16T16:19:54.450Z,0
2016-11-16T16:21:04.100Z,0
2016-11-16T16:22:13.483Z,0
2016-11-16T16:23:22.219Z,0
2016-11-16T16:24:31.264Z,0
2016-11-16T16:25:40.010Z,0
2016-11-16T16:26:49.359Z,0
2016-11-16T16:27:58.119Z,0
2016-11-16T16:29:06.871Z,0
2016-11-16T16:30:16.290Z,0